Time;durP1;ratioP1;P1;durP2;ratioP2;P2;SDS_P1;SDS_P2;PMS_P1;PMS_P2;Temp;Humidity;BMP_temperature;BMP_pressure;BME280_temperature;BME280_humidity;BME280_pressure;Samples;Min_cycle;Max_cycle;Signal;HPM_P1;HPM_P2
2023/05/20 00:00:52;;;;;;;14.37;5.53;;;11.30;99.90;;;;;;4996091;28;20049;-72
2023/05/20 00:03:21;;;;;;;14.33;4.97;;;11.30;99.90;;;;;;4996468;28;20094;-69
2023/05/20 00:05:47;;;;;;;13.87;5.57;;;11.40;99.90;;;;;;4996186;28;20289;-69
2023/05/20 00:08:13;;;;;;;15.00;5.67;;;11.30;99.90;;;;;;4996072;28;20297;-68
2023/05/20 00:10:40;;;;;;;12.87;5.27;;;11.30;99.90;;;;;;4996061;28;20281;-68
2023/05/20 00:13:06;;;;;;;12.63;5.37;;;11.30;99.90;;;;;;4996037;28;20287;-69
2023/05/20 00:15:32;;;;;;;20.07;5.90;;;11.30;99.90;;;;;;4996266;28;20281;-68
2023/05/20 00:17:59;;;;;;;14.40;5.27;;;11.30;99.90;;;;;;4995458;28;20408;-69
2023/05/20 00:20:25;;;;;;;11.83;5.13;;;11.30;99.90;;;;;;4995600;28;20762;-68
2023/05/20 00:22:51;;;;;;;17.40;5.60;;;11.30;99.90;;;;;;4995877;28;20288;-69
2023/05/20 00:25:16;;;;;;;16.63;5.50;;;11.20;99.90;;;;;;4996295;28;20125;-69
2023/05/20 00:27:42;;;;;;;14.43;5.07;;;11.20;99.90;;;;;;4995797;28;20046;-69
2023/05/20 00:30:08;;;;;;;13.23;5.03;;;11.20;99.90;;;;;;4993972;28;20050;-69
2023/05/20 00:32:34;;;;;;;19.47;5.37;;;11.20;99.90;;;;;;4994583;28;20128;-69
2023/05/20 00:35:00;;;;;;;11.70;5.57;;;11.20;99.90;;;;;;4996305;28;20309;-69
2023/05/20 00:37:26;;;;;;;14.63;5.23;;;11.20;99.90;;;;;;4996261;28;20149;-69
2023/05/20 00:39:52;;;;;;;11.50;4.97;;;11.20;99.90;;;;;;4994401;28;20673;-69
2023/05/20 00:42:21;;;;;;;11.20;5.67;;;11.10;99.90;;;;;;4995715;28;20046;-69
2023/05/20 00:44:47;;;;;;;14.90;5.43;;;11.10;99.90;;;;;;4996201;28;20050;-69
2023/05/20 00:47:19;;;;;;;14.63;5.77;;;11.10;99.90;;;;;;4995572;28;20293;-69
2023/05/20 00:49:47;;;;;;;12.67;6.33;;;11.10;99.90;;;;;;4995319;28;20065;-69
2023/05/20 00:52:14;;;;;;;16.17;6.03;;;11.10;99.90;;;;;;4995290;28;20340;-69
2023/05/20 00:54:40;;;;;;;16.17;5.80;;;11.10;99.90;;;;;;4995176;28;20281;-69
2023/05/20 00:57:07;;;;;;;12.90;5.30;;;11.20;99.90;;;;;;4995078;28;20307;-69
2023/05/20 00:59:35;;;;;;;16.10;5.17;;;11.10;99.90;;;;;;4993881;28;20642;-69
2023/05/20 01:02:05;;;;;;;11.43;4.77;;;11.10;99.90;;;;;;4994887;28;20308;-69
2023/05/20 01:04:31;;;;;;;14.07;4.90;;;11.10;99.90;;;;;;4995831;28;20282;-68
2023/05/20 01:06:59;;;;;;;16.20;6.13;;;11.10;99.90;;;;;;4994703;28;20901;-68
2023/05/20 01:09:26;;;;;;;15.70;6.27;;;11.10;99.90;;;;;;4994687;28;20772;-69
2023/05/20 01:12:26;;;;;;;12.63;5.50;;;11.00;99.90;;;;;;4994953;28;20308;-68
2023/05/20 01:15:07;;;;;;;13.10;4.90;;;11.00;99.90;;;;;;4995631;28;20312;-68
2023/05/20 01:17:45;;;;;;;12.30;5.20;;;11.00;99.90;;;;;;4995293;28;20297;-69
2023/05/20 01:20:13;;;;;;;14.37;5.80;;;11.00;99.90;;;;;;4995305;28;20281;-69
2023/05/20 01:22:51;;;;;;;13.37;5.33;;;11.00;99.90;;;;;;4994729;28;20364;-69
2023/05/20 01:25:17;;;;;;;13.27;5.53;;;10.90;99.90;;;;;;4994711;28;20273;-69
2023/05/20 01:27:43;;;;;;;16.83;5.33;;;10.90;99.90;;;;;;4994520;28;20281;-68
2023/05/20 01:30:10;;;;;;;12.90;5.53;;;10.90;99.90;;;;;;4994305;28;20371;-69
2023/05/20 01:32:49;;;;;;;14.40;5.97;;;10.90;99.90;;;;;;4992161;28;20278;-69
2023/05/20 01:35:16;;;;;;;15.10;5.37;;;10.90;99.90;;;;;;4994538;28;20278;-69
2023/05/20 01:37:42;;;;;;;12.63;5.50;;;10.80;99.90;;;;;;4994451;28;20357;-69
2023/05/20 01:40:10;;;;;;;16.07;5.27;;;10.80;99.90;;;;;;4994678;28;20281;-69
2023/05/20 01:42:37;;;;;;;13.27;5.53;;;10.80;99.90;;;;;;4994031;28;20292;-69
2023/05/20 01:45:04;;;;;;;13.83;5.33;;;10.80;99.90;;;;;;4994422;28;20328;-69
2023/05/20 01:47:30;;;;;;;11.33;5.00;;;10.80;99.90;;;;;;4993163;28;20293;-69
2023/05/20 01:49:55;;;;;;;14.17;5.80;;;10.80;99.90;;;;;;4994594;28;20288;-69
2023/05/20 01:52:22;;;;;;;13.33;5.50;;;10.80;99.90;;;;;;4994750;28;20054;-69
2023/05/20 01:54:50;;;;;;;14.03;5.63;;;10.70;99.90;;;;;;4993092;28;20378;-69
2023/05/20 01:57:25;;;;;;;16.13;5.70;;;10.70;99.90;;;;;;4994141;28;20302;-69
2023/05/20 01:59:50;;;;;;;11.98;5.60;;;10.70;99.90;;;;;;4994526;28;20274;-69
2023/05/20 02:02:16;;;;;;;14.83;5.47;;;10.70;99.90;;;;;;4994536;28;20046;-69
2023/05/20 02:04:46;;;;;;;12.83;5.70;;;10.70;99.90;;;;;;4994093;28;20061;-69
2023/05/20 02:07:13;;;;;;;14.47;5.77;;;10.60;99.90;;;;;;4994859;28;20057;-69
2023/05/20 02:09:39;;;;;;;13.57;6.00;;;10.60;99.90;;;;;;4994024;28;20785;-69
2023/05/20 02:12:06;;;;;;;15.47;6.03;;;10.60;99.90;;;;;;4994019;28;20321;-69
2023/05/20 02:14:32;;;;;;;11.60;5.03;;;10.60;99.90;;;;;;4994356;28;20541;-69
2023/05/20 02:16:57;;;;;;;10.93;5.37;;;10.60;99.90;;;;;;4993923;28;20298;-69
2023/05/20 02:19:23;;;;;;;12.30;5.27;;;10.50;99.90;;;;;;4993981;28;20193;-69
2023/05/20 02:21:49;;;;;;;12.13;6.10;;;10.50;99.90;;;;;;4992617;28;20046;-68
2023/05/20 02:24:15;;;;;;;11.03;5.37;;;10.50;99.90;;;;;;4993943;28;20054;-69
2023/05/20 02:26:43;;;;;;;17.03;5.63;;;10.50;99.90;;;;;;4993819;28;20828;-69
2023/05/20 02:29:08;;;;;;;15.53;5.70;;;10.50;99.90;;;;;;4994411;28;20629;-71
2023/05/20 02:31:34;;;;;;;13.43;6.10;;;10.50;99.90;;;;;;4994177;28;20293;-69
2023/05/20 02:34:00;;;;;;;11.17;4.97;;;10.50;99.90;;;;;;4994424;28;20463;-69
2023/05/20 02:36:26;;;;;;;15.30;5.63;;;10.50;99.90;;;;;;4993748;28;20053;-69
2023/05/20 02:38:55;;;;;;;13.07;5.87;;;10.50;99.90;;;;;;4993577;28;20491;-69
2023/05/20 02:41:21;;;;;;;13.53;6.03;;;10.50;99.90;;;;;;4992836;28;20285;-69
2023/05/20 02:43:47;;;;;;;11.00;5.47;;;10.50;99.90;;;;;;4994103;28;20281;-69
2023/05/20 02:46:14;;;;;;;9.67;5.03;;;10.50;99.90;;;;;;4994108;28;20650;-69
2023/05/20 02:48:40;;;;;;;11.00;4.80;;;10.50;99.90;;;;;;4993816;28;20050;-69
2023/05/20 02:51:06;;;;;;;14.27;5.00;;;10.50;99.90;;;;;;4993705;28;20368;-69
2023/05/20 02:53:32;;;;;;;10.70;4.77;;;10.40;99.90;;;;;;4993646;28;20051;-69
2023/05/20 02:55:58;;;;;;;12.30;5.47;;;10.50;99.90;;;;;;4994969;28;20096;-69
2023/05/20 02:58:25;;;;;;;12.40;5.33;;;10.40;99.90;;;;;;4997194;28;20563;-68
2023/05/20 03:00:53;;;;;;;11.93;4.70;;;10.40;99.90;;;;;;4998188;28;20605;-69
2023/05/20 03:03:19;;;;;;;13.47;5.50;;;10.40;99.90;;;;;;4996158;28;20323;-69
2023/05/20 03:05:45;;;;;;;11.73;5.77;;;10.40;99.90;;;;;;4996311;28;20376;-69
2023/05/20 03:08:12;;;;;;;11.60;5.37;;;10.40;99.90;;;;;;4998010;28;20054;-68
2023/05/20 03:10:38;;;;;;;11.37;5.50;;;10.40;99.90;;;;;;4996864;28;20176;-69
2023/05/20 03:13:10;;;;;;;11.00;4.70;;;10.40;99.90;;;;;;4995875;28;20284;-68
2023/05/20 03:15:45;;;;;;;11.73;5.57;;;10.40;99.90;;;;;;4997111;28;20388;-68
2023/05/20 03:18:14;;;;;;;;;;;10.40;99.90;;;;;;4997487;28;20305;-68
2023/05/20 03:20:40;;;;;;;14.60;5.47;;;10.40;99.90;;;;;;4997056;28;19969;-69
2023/05/20 03:23:07;;;;;;;8.03;4.07;;;10.40;99.90;;;;;;4996916;28;20787;-68
2023/05/20 03:25:33;;;;;;;9.93;4.90;;;10.40;99.90;;;;;;4996729;28;20789;-69
2023/05/20 03:27:58;;;;;;;10.97;5.07;;;10.40;99.90;;;;;;4996867;28;20278;-69
2023/05/20 03:30:25;;;;;;;8.80;4.37;;;10.40;99.90;;;;;;4996517;28;20042;-68
2023/05/20 03:32:51;;;;;;;9.47;4.60;;;10.40;99.90;;;;;;4996800;28;20042;-68
2023/05/20 03:35:16;;;;;;;13.63;5.47;;;10.30;99.90;;;;;;4996667;28;20285;-69
2023/05/20 03:37:42;;;;;;;11.70;5.00;;;10.40;99.90;;;;;;4996261;28;20046;-69
2023/05/20 03:40:09;;;;;;;13.70;5.27;;;10.30;99.90;;;;;;4997178;28;20129;-68
2023/05/20 03:42:35;;;;;;;9.73;5.73;;;10.40;99.90;;;;;;4996616;28;20052;-68
2023/05/20 03:45:01;;;;;;;9.40;4.50;;;10.30;99.90;;;;;;4996497;28;20290;-69
2023/05/20 03:47:27;;;;;;;10.67;4.40;;;10.40;99.90;;;;;;4995948;28;20288;-69
2023/05/20 03:49:53;;;;;;;13.07;5.60;;;10.40;99.90;;;;;;4996013;28;20093;-69
2023/05/20 03:52:20;;;;;;;10.57;4.93;;;10.30;99.90;;;;;;4996954;28;20316;-71
2023/05/20 03:54:46;;;;;;;11.43;4.47;;;10.40;99.90;;;;;;4995278;28;20109;-69
2023/05/20 03:57:12;;;;;;;10.60;4.50;;;10.40;99.90;;;;;;4996257;28;20385;-69
2023/05/20 03:59:37;;;;;;;10.67;4.30;;;10.40;99.90;;;;;;4996258;28;20360;-69
2023/05/20 04:02:04;;;;;;;11.17;4.03;;;10.30;99.90;;;;;;4996218;28;20042;-69
2023/05/20 04:04:31;;;;;;;8.27;4.77;;;10.30;99.90;;;;;;4996078;28;20042;-69
2023/05/20 04:06:59;;;;;;;10.37;4.07;;;10.40;99.90;;;;;;4995919;28;20301;-69
2023/05/20 04:09:25;;;;;;;8.63;3.87;;;10.30;99.90;;;;;;4996333;28;20368;-69
2023/05/20 04:11:51;;;;;;;11.47;4.60;;;10.40;99.90;;;;;;4996108;28;20277;-69
2023/05/20 04:14:17;;;;;;;9.57;4.30;;;10.40;99.90;;;;;;4996062;28;20296;-69
2023/05/20 04:16:44;;;;;;;8.40;4.23;;;10.40;99.90;;;;;;4994912;28;20046;-69
2023/05/20 04:19:11;;;;;;;9.97;4.53;;;10.40;99.90;;;;;;4994972;28;20061;-68
2023/05/20 04:21:37;;;;;;;11.13;4.27;;;10.40;99.90;;;;;;4995815;28;20285;-69
2023/05/20 04:24:03;;;;;;;7.90;4.17;;;10.40;99.90;;;;;;4995816;28;20344;-69
2023/05/20 04:26:29;;;;;;;10.40;4.20;;;10.40;99.90;;;;;;4995712;28;20277;-69
2023/05/20 04:28:57;;;;;;;9.00;3.90;;;10.40;99.90;;;;;;4994509;28;20352;-69
2023/05/20 04:31:25;;;;;;;6.83;3.87;;;10.40;99.90;;;;;;4995573;28;20089;-69
2023/05/20 04:33:54;;;;;;;9.03;4.20;;;10.40;99.90;;;;;;4995657;28;20289;-69
2023/05/20 04:36:19;;;;;;;7.83;3.63;;;10.50;99.90;;;;;;4995966;28;20392;-68
2023/05/20 04:38:47;;;;;;;6.87;3.67;;;10.50;99.90;;;;;;4995744;28;20834;-68
2023/05/20 04:41:14;;;;;;;8.60;3.37;;;10.50;99.90;;;;;;4994320;28;20054;-69
2023/05/20 04:43:40;;;;;;;8.73;3.90;;;10.60;99.90;;;;;;4995894;28;20300;-69
2023/05/20 04:46:06;;;;;;;9.17;3.63;;;10.60;99.90;;;;;;4995955;28;20657;-69
2023/05/20 04:48:32;;;;;;;7.00;3.07;;;10.60;99.90;;;;;;4995460;28;20058;-69
2023/05/20 04:50:58;;;;;;;9.70;3.60;;;10.70;99.90;;;;;;4994773;28;20050;-69
2023/05/20 04:53:24;;;;;;;6.40;3.23;;;10.70;99.90;;;;;;4994123;28;20282;-69
2023/05/20 04:55:53;;;;;;;8.17;3.70;;;10.70;99.90;;;;;;4995270;28;20050;-69
2023/05/20 04:58:23;;;;;;;7.37;3.37;;;10.70;99.90;;;;;;4995880;28;20377;-68
2023/05/20 05:00:49;;;;;;;7.33;3.20;;;10.70;99.90;;;;;;4995046;28;20288;-69
2023/05/20 05:03:15;;;;;;;7.63;3.40;;;10.80;99.90;;;;;;4995120;28;20288;-69
2023/05/20 05:05:41;;;;;;;8.30;3.00;;;10.80;99.90;;;;;;4995319;28;20733;-69
2023/05/20 05:08:08;;;;;;;7.87;2.80;;;10.80;99.90;;;;;;4995060;28;20390;-69
2023/05/20 05:10:34;;;;;;;8.10;3.20;;;10.80;99.90;;;;;;4994993;28;20046;-69
2023/05/20 05:13:00;;;;;;;4.70;2.40;;;10.80;99.90;;;;;;4994889;28;20281;-69
2023/05/20 05:15:26;;;;;;;6.63;2.37;;;10.90;99.90;;;;;;4994841;28;20288;-69
2023/05/20 05:17:52;;;;;;;8.80;3.07;;;10.90;99.90;;;;;;4994136;28;20141;-68
2023/05/20 05:20:18;;;;;;;6.37;2.70;;;10.90;99.90;;;;;;4994796;28;20364;-69
2023/05/20 05:22:44;;;;;;;6.03;2.67;;;11.00;99.90;;;;;;4995056;28;20054;-69
2023/05/20 05:25:11;;;;;;;7.20;2.73;;;11.10;99.90;;;;;;4995296;28;20053;-69
2023/05/20 05:27:37;;;;;;;6.70;2.90;;;11.20;99.90;;;;;;4994686;28;20284;-69
2023/05/20 05:30:05;;;;;;;5.80;2.97;;;11.20;99.90;;;;;;4994622;28;20277;-69
2023/05/20 05:32:30;;;;;;;7.30;2.53;;;11.30;99.90;;;;;;4994558;28;20281;-69
2023/05/20 05:34:56;;;;;;;6.90;2.70;;;11.40;99.90;;;;;;4994514;28;20361;-69
2023/05/20 05:37:22;;;;;;;7.83;2.60;;;11.40;99.90;;;;;;4993274;28;20086;-69
2023/05/20 05:39:48;;;;;;;6.53;2.70;;;11.60;99.90;;;;;;4994122;28;20521;-69
2023/05/20 05:42:14;;;;;;;5.03;2.20;;;11.70;99.90;;;;;;4994376;28;20321;-69
2023/05/20 05:44:40;;;;;;;6.27;2.20;;;11.90;99.90;;;;;;4992751;28;20042;-69
2023/05/20 05:47:06;;;;;;;6.33;2.43;;;12.00;99.90;;;;;;4994292;28;20113;-69
2023/05/20 05:49:32;;;;;;;8.50;1.90;;;12.30;99.90;;;;;;4993642;28;20097;-69
2023/05/20 05:51:58;;;;;;;6.13;2.23;;;12.50;99.90;;;;;;4994202;28;20046;-69
2023/05/20 05:54:24;;;;;;;4.47;1.87;;;13.40;99.90;;;;;;4994580;28;20372;-69
2023/05/20 05:56:51;;;;;;;4.23;1.90;;;14.30;99.90;;;;;;4993809;28;20042;-69
2023/05/20 05:59:16;;;;;;;6.10;2.30;;;14.60;99.90;;;;;;4994228;28;20057;-69
2023/05/20 06:01:42;;;;;;;5.53;2.40;;;14.40;99.90;;;;;;4994057;28;20753;-69
2023/05/20 06:04:08;;;;;;;7.63;2.30;;;14.00;99.90;;;;;;4994935;28;20057;-69
2023/05/20 06:06:33;;;;;;;6.80;2.20;;;13.70;99.90;;;;;;4994646;28;20095;-68
2023/05/20 06:08:59;;;;;;;7.90;2.40;;;13.50;99.90;;;;;;4993745;28;20045;-69
2023/05/20 06:11:25;;;;;;;7.60;2.20;;;13.30;99.90;;;;;;4994055;28;20050;-69
2023/05/20 06:13:51;;;;;;;5.57;2.10;;;13.20;99.90;;;;;;4994016;28;20054;-69
2023/05/20 06:16:17;;;;;;;6.90;2.00;;;13.10;99.90;;;;;;4993945;28;20050;-69
2023/05/20 06:18:44;;;;;;;4.73;2.03;;;13.10;99.90;;;;;;4994328;28;20286;-69
2023/05/20 06:21:10;;;;;;;5.10;2.10;;;13.00;99.90;;;;;;4994290;28;20082;-69
2023/05/20 06:23:36;;;;;;;6.70;2.27;;;13.00;99.90;;;;;;4994670;28;20832;-68
2023/05/20 06:26:02;;;;;;;3.13;1.70;;;13.00;99.90;;;;;;4993899;28;20046;-69
2023/05/20 06:28:29;;;;;;;4.83;2.20;;;13.10;99.90;;;;;;4995681;28;20475;-69
2023/05/20 06:30:55;;;;;;;4.50;1.60;;;14.30;99.90;;;;;;4998113;28;20495;-69
2023/05/20 06:33:27;;;;;;;4.53;2.00;;;15.90;99.90;;;;;;4997706;28;20368;-69
2023/05/20 06:35:55;;;;;;;4.67;1.60;;;17.70;99.90;;;;;;4997812;28;20860;-69
2023/05/20 06:38:21;;;;;;;6.03;1.50;;;18.90;99.90;;;;;;4998319;28;20337;-69
2023/05/20 06:40:50;;;;;;;4.47;1.90;;;19.80;99.90;;;;;;4997623;28;20281;-69
2023/05/20 06:43:16;;;;;;;4.07;1.87;;;20.60;95.30;;;;;;4997706;28;20281;-69
2023/05/20 06:45:42;;;;;;;4.70;1.80;;;21.20;98.40;;;;;;4996667;28;20086;-71
2023/05/20 06:48:09;;;;;;;5.20;1.90;;;21.80;91.50;;;;;;4997753;28;20054;-69
2023/05/20 06:50:34;;;;;;;4.97;1.80;;;22.00;77.60;;;;;;4997638;28;20514;-69
2023/05/20 06:53:00;;;;;;;5.27;2.10;;;21.80;63.50;;;;;;4997349;28;20122;-69
2023/05/20 06:55:26;;;;;;;4.40;1.83;;;22.20;66.90;;;;;;4996552;28;20445;-69
2023/05/20 06:57:52;;;;;;;4.00;2.03;;;22.70;64.10;;;;;;4997346;28;20043;-69
2023/05/20 07:00:18;;;;;;;4.17;1.83;;;22.90;63.00;;;;;;4997401;28;20501;-69
2023/05/20 07:02:45;;;;;;;4.40;2.00;;;23.00;59.70;;;;;;4997607;28;20402;-71
2023/05/20 07:05:11;;;;;;;5.53;1.80;;;23.00;56.80;;;;;;4997395;28;20137;-70
2023/05/20 07:07:37;;;;;;;3.80;2.03;;;23.40;56.50;;;;;;4996954;28;20401;-67
2023/05/20 07:10:04;;;;;;;3.93;1.90;;;23.10;54.20;;;;;;4997196;28;20069;-67
2023/05/20 07:12:31;;;;;;;4.43;1.87;;;23.30;54.30;;;;;;4997231;28;20050;-67
2023/05/20 07:14:57;;;;;;;5.33;1.93;;;23.90;54.40;;;;;;4997915;28;20054;-68
2023/05/20 07:17:23;;;;;;;4.47;1.90;;;24.10;50.20;;;;;;4996979;28;20386;-68
2023/05/20 07:19:49;;;;;;;3.83;1.60;;;24.60;52.10;;;;;;4997067;28;20116;-68
2023/05/20 07:22:15;;;;;;;2.97;1.50;;;25.10;50.50;;;;;;4997018;28;20046;-67
2023/05/20 07:24:41;;;;;;;3.73;1.63;;;24.70;48.90;;;;;;4980020;28;20375;-67
2023/05/20 07:27:07;;;;;;;3.37;1.80;;;24.50;48.50;;;;;;4997101;28;20042;-68
2023/05/20 07:29:34;;;;;;;6.83;1.93;;;24.40;48.40;;;;;;4996860;28;20053;-68
2023/05/20 07:32:00;;;;;;;3.47;2.03;;;24.70;48.60;;;;;;4996828;28;20047;-69
2023/05/20 07:34:26;;;;;;;7.20;2.07;;;24.80;48.20;;;;;;4996815;28;20129;-69
2023/05/20 07:36:52;;;;;;;4.60;2.00;;;24.80;48.00;;;;;;4996646;28;20046;-69
2023/05/20 07:39:18;;;;;;;4.83;1.40;;;24.70;46.70;;;;;;4996619;28;20452;-69
2023/05/20 07:41:44;;;;;;;5.90;1.87;;;23.90;46.30;;;;;;4979537;28;20062;-69
2023/05/20 07:44:11;;;;;;;3.37;1.60;;;24.20;47.90;;;;;;4996680;28;20098;-69
2023/05/20 07:46:37;;;;;;;3.10;1.50;;;24.50;47.40;;;;;;4996702;28;20046;-69
2023/05/20 07:49:03;;;;;;;3.20;1.40;;;24.20;46.80;;;;;;4995352;28;20050;-69
2023/05/20 07:51:30;;;;;;;4.03;1.50;;;24.30;46.50;;;;;;4996531;28;20046;-69
2023/05/20 07:53:56;;;;;;;3.07;1.50;;;24.30;46.40;;;;;;4996454;28;20062;-69
2023/05/20 07:56:21;;;;;;;4.33;1.53;;;24.30;46.50;;;;;;4996429;28;20270;-69
2023/05/20 07:58:57;;;;;;;3.10;1.50;;;24.60;47.00;;;;;;4996330;28;20503;-69
2023/05/20 08:01:24;;;;;;;5.23;1.60;;;25.10;45.10;;;;;;4997128;28;20046;-69
2023/05/20 08:03:50;;;;;;;3.67;1.43;;;25.30;45.80;;;;;;4996974;28;20054;-69
2023/05/20 08:06:17;;;;;;;4.13;1.40;;;25.20;44.80;;;;;;4995957;28;20046;-69
2023/05/20 08:08:42;;;;;;;3.03;1.30;;;25.20;44.80;;;;;;4995145;28;20054;-68
2023/05/20 08:11:09;;;;;;;3.93;1.67;;;25.20;45.10;;;;;;4996549;28;20053;-68
2023/05/20 08:13:35;;;;;;;3.43;1.60;;;25.20;45.60;;;;;;4995716;28;20082;-68
2023/05/20 08:16:02;;;;;;;3.93;1.90;;;24.80;45.20;;;;;;4995921;28;20132;-69
2023/05/20 08:18:28;;;;;;;2.40;1.43;;;24.30;45.40;;;;;;4996456;28;20046;-69
2023/05/20 08:20:54;;;;;;;4.73;1.50;;;24.00;46.00;;;;;;4994926;28;20189;-69
2023/05/20 08:23:20;;;;;;;5.13;1.40;;;23.90;46.30;;;;;;4994760;28;20097;-69
2023/05/20 08:25:47;;;;;;;2.93;1.67;;;23.70;46.80;;;;;;4995858;28;20082;-69
2023/05/20 08:28:13;;;;;;;5.27;1.40;;;23.40;47.60;;;;;;4996607;28;20124;-69
2023/05/20 08:30:38;;;;;;;4.73;1.60;;;23.40;47.90;;;;;;4995730;28;20491;-70
2023/05/20 08:33:04;;;;;;;2.57;1.33;;;22.90;48.20;;;;;;4995660;28;20097;-69
2023/05/20 08:35:30;;;;;;;3.67;1.57;;;22.10;48.90;;;;;;4996425;28;20101;-69
2023/05/20 08:37:57;;;;;;;4.77;1.77;;;21.40;49.20;;;;;;4995519;28;20093;-68
2023/05/20 08:40:22;;;;;;;5.20;1.80;;;20.90;50.20;;;;;;4994371;28;20141;-68
2023/05/20 08:42:51;;;;;;;4.93;1.57;;;20.50;50.90;;;;;;4994830;28;20137;-67
2023/05/20 08:45:20;;;;;;;3.13;1.50;;;20.20;51.80;;;;;;4995446;28;20101;-68
2023/05/20 08:47:45;;;;;;;4.23;1.60;;;19.90;52.60;;;;;;4995668;28;20117;-67
2023/05/20 08:50:12;;;;;;;3.27;1.40;;;19.70;53.60;;;;;;4994941;28;20498;-67
2023/05/20 08:52:46;;;;;;;6.80;1.67;;;19.50;53.70;;;;;;4994894;28;20054;-67
2023/05/20 08:55:21;;;;;;;6.27;1.87;;;19.40;54.30;;;;;;4995338;28;20046;-67
2023/05/20 08:57:50;;;;;;;5.30;2.10;;;19.30;55.10;;;;;;4995744;28;20082;-68
2023/05/20 09:00:17;;;;;;;6.87;1.90;;;19.10;55.90;;;;;;4995158;28;20537;-67
2023/05/20 09:02:45;;;;;;;6.03;1.50;;;18.90;57.00;;;;;;4994926;28;20046;-68
2023/05/20 09:05:10;;;;;;;4.97;2.10;;;18.90;59.10;;;;;;4995067;28;20089;-68
2023/05/20 09:07:36;;;;;;;6.27;2.20;;;19.00;61.10;;;;;;4994721;28;20074;-68
2023/05/20 09:10:03;;;;;;;4.03;1.80;;;19.00;62.70;;;;;;4994965;28;20061;-68
2023/05/20 09:12:37;;;;;;;4.20;2.37;;;19.10;63.30;;;;;;5131453;27;20448;-68
2023/05/20 09:15:03;;;;;;;8.37;1.73;;;19.00;66.00;;;;;;5112744;28;20051;-69
2023/05/20 09:17:29;;;;;;;6.03;1.77;;;18.90;67.10;;;;;;5113204;28;20058;-68
2023/05/20 09:19:55;;;;;;;4.30;1.80;;;18.80;63.30;;;;;;5131272;28;20122;-68
2023/05/20 09:22:23;;;;;;;3.93;1.80;;;18.80;66.70;;;;;;5130781;27;20122;-69
2023/05/20 09:24:50;;;;;;;6.13;1.70;;;18.80;70.50;;;;;;5130920;28;20054;-68
2023/05/20 09:27:16;;;;;;;7.20;2.30;;;18.80;71.90;;;;;;5112599;28;20093;-68
2023/05/20 09:29:42;;;;;;;4.97;1.90;;;18.80;71.30;;;;;;5130776;28;20495;-68
2023/05/20 09:32:09;;;;;;;5.37;2.10;;;18.80;74.80;;;;;;5130584;28;20044;-68
2023/05/20 09:34:36;;;;;;;4.50;1.90;;;18.80;74.10;;;;;;5130815;28;20470;-69
2023/05/20 09:37:04;;;;;;;6.63;2.07;;;18.80;75.80;;;;;;5112483;28;20093;-71
2023/05/20 09:39:35;;;;;;;3.50;2.00;;;18.80;78.60;;;;;;5130529;28;20507;-68
2023/05/20 09:42:07;;;;;;;4.40;1.87;;;18.70;76.10;;;;;;5130804;27;20118;-68
2023/05/20 09:44:33;;;;;;;6.67;2.00;;;18.70;78.70;;;;;;5130715;28;20043;-69
2023/05/20 09:47:01;;;;;;;3.40;1.90;;;18.70;75.90;;;;;;5130743;27;20078;-69
2023/05/20 09:49:29;;;;;;;6.03;2.10;;;18.70;75.90;;;;;;5130218;27;20533;-69
2023/05/20 09:51:56;;;;;;;6.93;2.37;;;18.70;78.00;;;;;;5130224;28;20092;-69
2023/05/20 09:54:24;;;;;;;4.17;1.83;;;18.70;81.80;;;;;;5111836;28;20087;-69
2023/05/20 09:56:50;;;;;;;4.23;2.00;;;18.80;83.90;;;;;;5130187;27;20548;-69
2023/05/20 09:59:16;;;;;;;7.17;2.10;;;18.70;82.90;;;;;;5129971;28;20083;-69
2023/05/20 10:01:44;;;;;;;5.63;1.87;;;18.70;80.80;;;;;;5129831;27;20060;-69
2023/05/20 10:04:14;;;;;;;4.87;1.70;;;18.60;77.50;;;;;;5111452;28;20043;-70
2023/05/20 10:07:20;;;;;;;5.37;2.07;;;18.60;82.20;;;;;;5129581;27;20051;-69
2023/05/20 10:09:55;;;;;;;;;;;18.60;81.20;;;;;;5111708;28;20496;-69
2023/05/20 10:12:50;;;;;;;4.65;1.88;;;18.60;81.70;;;;;;5129446;27;19923;-69
2023/05/20 10:15:40;;;;;;;4.03;2.15;;;18.70;85.00;;;;;;5104004;28;20499;-69
2023/05/20 10:18:26;;;;;;;6.07;1.87;;;18.70;84.20;;;;;;5130219;28;20050;-69
2023/05/20 10:20:52;;;;;;;5.57;2.00;;;18.80;85.30;;;;;;5130127;28;20084;-69
2023/05/20 10:23:27;;;;;;;7.97;1.90;;;18.80;86.20;;;;;;5119602;28;20051;-69
2023/05/20 10:25:55;;;;;;;6.13;1.90;;;18.90;82.50;;;;;;5116066;28;20047;-69
2023/05/20 10:28:40;;;;;;;5.37;1.90;;;19.00;83.90;;;;;;5115752;28;20047;-69
2023/05/20 10:31:22;;;;;;;6.40;1.83;;;19.10;82.30;;;;;;5116192;28;20048;-69
2023/05/20 10:33:51;;;;;;;7.40;2.63;;;19.10;78.50;;;;;;5116168;28;20043;-69
2023/05/20 10:36:27;;;;;;;6.03;1.90;;;19.00;83.00;;;;;;5115746;28;20417;-69
2023/05/20 10:38:58;;;;;;;6.97;2.67;;;18.90;84.50;;;;;;5116427;28;20048;-69
2023/05/20 10:41:26;;;;;;;6.33;1.87;;;18.80;85.10;;;;;;5115631;28;20127;-69
2023/05/20 10:44:02;;;;;;;7.87;2.40;;;18.80;88.10;;;;;;5097986;28;20079;-69
2023/05/20 10:46:29;;;;;;;5.40;2.00;;;18.90;86.80;;;;;;5115126;28;20047;-69
2023/05/20 10:48:56;;;;;;;6.00;2.50;;;18.80;87.60;;;;;;5115609;28;20043;-69
2023/05/20 10:51:22;;;;;;;6.53;1.97;;;18.80;85.00;;;;;;5115458;28;20048;-69
2023/05/20 10:53:52;;;;;;;4.73;1.90;;;19.00;86.20;;;;;;5115665;28;20050;-69
2023/05/20 10:56:23;;;;;;;4.90;2.03;;;19.00;84.50;;;;;;5115331;28;20039;-68
2023/05/20 10:58:50;;;;;;;6.20;2.77;;;18.90;83.70;;;;;;5115614;28;20054;-68
2023/05/20 11:01:17;;;;;;;4.80;2.10;;;18.80;84.10;;;;;;5097283;28;20092;-70
2023/05/20 11:03:46;;;;;;;7.17;2.83;;;18.80;83.00;;;;;;5115428;28;20048;-67
2023/05/20 11:06:13;;;;;;;5.43;2.20;;;18.80;87.40;;;;;;5115579;28;20479;-67
2023/05/20 11:08:39;;;;;;;9.47;2.07;;;18.90;87.80;;;;;;5115443;28;20051;-67
2023/05/20 11:11:06;;;;;;;5.10;2.00;;;19.00;86.20;;;;;;5115350;28;20502;-69
2023/05/20 11:13:31;;;;;;;4.20;2.13;;;19.10;85.40;;;;;;5115036;28;20407;-69
2023/05/20 11:15:58;;;;;;;6.80;1.90;;;19.20;85.00;;;;;;5097026;28;20044;-69
2023/05/20 11:18:29;;;;;;;6.87;2.40;;;19.30;83.90;;;;;;5114778;28;20048;-69
2023/05/20 11:20:59;;;;;;;5.60;2.27;;;19.30;77.60;;;;;;5115614;28;20067;-69
2023/05/20 11:23:27;;;;;;;5.07;2.53;;;19.20;80.00;;;;;;5114919;28;20051;-69
2023/05/20 11:25:54;;;;;;;4.03;2.20;;;19.10;78.90;;;;;;5115267;28;20044;-68
2023/05/20 11:28:20;;;;;;;6.03;2.20;;;18.90;79.50;;;;;;5114811;28;20054;-69
2023/05/20 11:30:47;;;;;;;7.10;2.80;;;18.90;85.40;;;;;;5114706;28;20043;-69
2023/05/20 11:33:14;;;;;;;7.17;2.60;;;18.90;91.20;;;;;;5097053;28;20051;-69
2023/05/20 11:35:53;;;;;;;7.20;2.47;;;18.80;94.50;;;;;;5113902;28;20048;-69
2023/05/20 11:38:20;;;;;;;6.40;2.63;;;18.70;96.40;;;;;;5114680;28;20056;-69
2023/05/20 11:40:49;;;;;;;6.70;2.57;;;18.70;98.10;;;;;;5114683;28;20043;-69
2023/05/20 11:43:15;;;;;;;7.90;2.43;;;18.80;98.30;;;;;;5079579;28;20134;-68
2023/05/20 11:45:43;;;;;;;7.47;2.93;;;18.80;99.10;;;;;;5114459;28;20544;-69
2023/05/20 11:48:11;;;;;;;9.23;2.87;;;18.80;99.10;;;;;;5114634;28;20047;-72
2023/05/20 11:50:42;;;;;;;5.40;2.97;;;18.80;98.70;;;;;;5096306;28;20040;-71
2023/05/20 11:53:14;;;;;;;7.47;3.30;;;18.70;98.70;;;;;;5114490;28;20054;-69
2023/05/20 11:55:57;;;;;;;6.17;3.17;;;18.70;99.40;;;;;;5096174;28;20062;-70
2023/05/20 11:58:28;;;;;;;8.97;2.70;;;18.70;99.30;;;;;;5114395;28;20124;-69
2023/05/20 12:00:54;;;;;;;14.57;4.30;;;18.80;99.40;;;;;;5114587;28;20126;-69
2023/05/20 12:03:20;;;;;;;6.40;3.20;;;18.90;98.80;;;;;;5114417;28;20130;-69
2023/05/20 12:05:50;;;;;;;7.27;2.80;;;18.90;98.90;;;;;;5114187;28;20525;-68
2023/05/20 12:08:16;;;;;;;9.60;3.03;;;19.00;99.00;;;;;;5096133;28;20391;-68
2023/05/20 12:10:43;;;;;;;5.83;2.83;;;19.10;99.80;;;;;;5095356;28;20639;-68
2023/05/20 12:13:11;;;;;;;5.93;2.33;;;19.10;98.90;;;;;;5114099;28;20130;-68
2023/05/20 12:15:38;;;;;;;6.20;2.63;;;19.10;99.30;;;;;;5095926;28;20058;-68
2023/05/20 12:18:04;;;;;;;8.70;2.80;;;19.20;98.50;;;;;;5114037;28;20051;-68
2023/05/20 12:20:30;;;;;;;7.57;2.73;;;19.30;98.20;;;;;;5095617;28;20039;-67
2023/05/20 12:22:56;;;;;;;11.07;2.70;;;19.30;98.50;;;;;;5095839;28;20059;-67
2023/05/20 12:25:23;;;;;;;6.43;3.00;;;19.30;98.10;;;;;;5114037;28;20043;-68
2023/05/20 12:27:49;;;;;;;8.50;2.80;;;19.30;97.40;;;;;;5095751;28;20487;-68
2023/05/20 12:30:20;;;;;;;7.10;3.03;;;19.20;98.00;;;;;;5078906;28;20047;-69
2023/05/20 12:32:46;;;;;;;7.93;3.00;;;19.20;98.40;;;;;;5113388;28;20044;-69
2023/05/20 12:35:12;;;;;;;6.97;3.00;;;19.10;98.60;;;;;;5113516;28;20494;-68
2023/05/20 12:37:40;;;;;;;5.87;3.13;;;19.10;96.80;;;;;;5095242;28;20043;-69
2023/05/20 12:40:07;;;;;;;7.73;2.77;;;19.10;99.10;;;;;;5113735;28;20043;-68
2023/05/20 12:42:37;;;;;;;8.17;2.83;;;19.20;98.70;;;;;;5095549;28;20047;-69
2023/05/20 12:45:04;;;;;;;7.27;3.00;;;19.20;98.80;;;;;;5095025;28;20039;-70